sensor_id;sensor_type;location;lat;lon;timestamp;P1;durP1;ratioP1;P2;durP2;ratioP2
6292;SDS011;3179;54.350;10.102;2023-11-19T00:00:12;5.77;;;3.80;;
6292;SDS011;3179;54.350;10.102;2023-11-19T00:02:39;4.10;;;3.37;;
6292;SDS011;3179;54.350;10.102;2023-11-19T00:05:07;4.97;;;4.13;;
6292;SDS011;3179;54.350;10.102;2023-11-19T00:07:36;4.80;;;4.17;;
6292;SDS011;3179;54.350;10.102;2023-11-19T00:10:08;4.90;;;3.77;;
6292;SDS011;3179;54.350;10.102;2023-11-19T00:12:35;4.20;;;3.80;;
6292;SDS011;3179;54.350;10.102;2023-11-19T00:15:03;4.70;;;4.07;;
6292;SDS011;3179;54.350;10.102;2023-11-19T00:17:30;5.00;;;3.57;;
6292;SDS011;3179;54.350;10.102;2023-11-19T00:19:57;4.97;;;3.80;;
6292;SDS011;3179;54.350;10.102;2023-11-19T00:22:24;4.27;;;3.50;;
6292;SDS011;3179;54.350;10.102;2023-11-19T00:24:51;4.93;;;3.60;;
6292;SDS011;3179;54.350;10.102;2023-11-19T00:27:19;3.50;;;3.00;;
6292;SDS011;3179;54.350;10.102;2023-11-19T00:29:46;3.77;;;3.10;;
6292;SDS011;3179;54.350;10.102;2023-11-19T00:32:12;3.73;;;3.37;;
6292;SDS011;3179;54.350;10.102;2023-11-19T00:34:40;3.97;;;3.60;;
6292;SDS011;3179;54.350;10.102;2023-11-19T00:37:09;4.17;;;3.67;;
6292;SDS011;3179;54.350;10.102;2023-11-19T00:39:36;4.57;;;3.90;;
6292;SDS011;3179;54.350;10.102;2023-11-19T00:42:03;3.07;;;2.87;;
6292;SDS011;3179;54.350;10.102;2023-11-19T00:44:31;4.10;;;3.37;;
6292;SDS011;3179;54.350;10.102;2023-11-19T00:46:58;3.60;;;3.27;;
6292;SDS011;3179;54.350;10.102;2023-11-19T00:49:25;3.47;;;3.17;;
6292;SDS011;3179;54.350;10.102;2023-11-19T00:51:52;3.50;;;3.20;;
6292;SDS011;3179;54.350;10.102;2023-11-19T00:54:19;4.03;;;3.23;;
6292;SDS011;3179;54.350;10.102;2023-11-19T00:56:46;3.90;;;3.60;;
6292;SDS011;3179;54.350;10.102;2023-11-19T00:59:12;3.67;;;3.20;;
6292;SDS011;3179;54.350;10.102;2023-11-19T01:01:41;3.87;;;3.23;;
6292;SDS011;3179;54.350;10.102;2023-11-19T01:04:08;3.33;;;3.03;;
6292;SDS011;3179;54.350;10.102;2023-11-19T01:06:35;3.10;;;2.90;;
6292;SDS011;3179;54.350;10.102;2023-11-19T01:09:02;3.20;;;2.90;;
6292;SDS011;3179;54.350;10.102;2023-11-19T01:11:28;2.50;;;2.30;;
6292;SDS011;3179;54.350;10.102;2023-11-19T01:13:54;3.00;;;2.70;;
6292;SDS011;3179;54.350;10.102;2023-11-19T01:16:21;4.00;;;2.97;;
6292;SDS011;3179;54.350;10.102;2023-11-19T01:18:49;3.10;;;2.77;;
6292;SDS011;3179;54.350;10.102;2023-11-19T01:21:16;3.57;;;3.27;;
6292;SDS011;3179;54.350;10.102;2023-11-19T01:23:43;3.07;;;2.77;;
6292;SDS011;3179;54.350;10.102;2023-11-19T01:26:10;2.90;;;2.70;;
6292;SDS011;3179;54.350;10.102;2023-11-19T01:28:37;2.77;;;2.57;;
6292;SDS011;3179;54.350;10.102;2023-11-19T01:31:08;2.70;;;2.50;;
6292;SDS011;3179;54.350;10.102;2023-11-19T01:33:35;2.90;;;2.20;;
6292;SDS011;3179;54.350;10.102;2023-11-19T01:36:04;2.43;;;2.23;;
6292;SDS011;3179;54.350;10.102;2023-11-19T01:38:33;2.40;;;2.20;;
6292;SDS011;3179;54.350;10.102;2023-11-19T01:40:59;2.30;;;2.10;;
6292;SDS011;3179;54.350;10.102;2023-11-19T01:43:33;2.47;;;2.27;;
6292;SDS011;3179;54.350;10.102;2023-11-19T01:46:00;2.50;;;2.30;;
6292;SDS011;3179;54.350;10.102;2023-11-19T01:48:28;2.57;;;2.23;;
6292;SDS011;3179;54.350;10.102;2023-11-19T01:50:55;2.40;;;2.20;;
6292;SDS011;3179;54.350;10.102;2023-11-19T01:53:24;2.20;;;2.10;;
6292;SDS011;3179;54.350;10.102;2023-11-19T01:55:51;2.43;;;1.70;;
6292;SDS011;3179;54.350;10.102;2023-11-19T01:58:18;2.30;;;2.10;;
6292;SDS011;3179;54.350;10.102;2023-11-19T02:00:45;1.90;;;1.70;;
6292;SDS011;3179;54.350;10.102;2023-11-19T02:03:12;1.90;;;1.80;;
6292;SDS011;3179;54.350;10.102;2023-11-19T02:05:41;1.90;;;1.80;;
6292;SDS011;3179;54.350;10.102;2023-11-19T02:08:07;1.83;;;1.73;;
6292;SDS011;3179;54.350;10.102;2023-11-19T02:10:36;1.60;;;1.50;;
6292;SDS011;3179;54.350;10.102;2023-11-19T02:13:03;5.80;;;1.40;;
6292;SDS011;3179;54.350;10.102;2023-11-19T02:15:31;1.60;;;1.50;;
6292;SDS011;3179;54.350;10.102;2023-11-19T02:20:46;1.27;;;1.20;;
6292;SDS011;3179;54.350;10.102;2023-11-19T02:23:14;1.40;;;1.30;;
6292;SDS011;3179;54.350;10.102;2023-11-19T02:25:42;1.50;;;1.40;;
6292;SDS011;3179;54.350;10.102;2023-11-19T02:28:16;1.23;;;1.20;;
6292;SDS011;3179;54.350;10.102;2023-11-19T02:30:43;1.37;;;1.27;;
6292;SDS011;3179;54.350;10.102;2023-11-19T02:33:10;1.30;;;1.20;;
6292;SDS011;3179;54.350;10.102;2023-11-19T02:35:37;1.53;;;1.30;;
6292;SDS011;3179;54.350;10.102;2023-11-19T02:38:05;0.93;;;0.93;;
6292;SDS011;3179;54.350;10.102;2023-11-19T02:40:33;1.20;;;1.10;;
6292;SDS011;3179;54.350;10.102;2023-11-19T02:43:00;0.87;;;0.87;;
6292;SDS011;3179;54.350;10.102;2023-11-19T02:45:31;1.43;;;1.13;;
6292;SDS011;3179;54.350;10.102;2023-11-19T02:47:58;0.80;;;0.80;;
6292;SDS011;3179;54.350;10.102;2023-11-19T02:50:26;0.87;;;0.87;;
6292;SDS011;3179;54.350;10.102;2023-11-19T02:52:54;1.33;;;0.73;;
6292;SDS011;3179;54.350;10.102;2023-11-19T02:55:22;0.90;;;0.70;;
6292;SDS011;3179;54.350;10.102;2023-11-19T02:57:50;0.77;;;0.77;;
6292;SDS011;3179;54.350;10.102;2023-11-19T03:00:18;1.00;;;0.80;;
6292;SDS011;3179;54.350;10.102;2023-11-19T03:02:50;3.40;;;0.90;;
6292;SDS011;3179;54.350;10.102;2023-11-19T03:05:24;0.60;;;0.60;;
6292;SDS011;3179;54.350;10.102;2023-11-19T03:07:54;1.03;;;0.80;;
6292;SDS011;3179;54.350;10.102;2023-11-19T03:10:21;0.90;;;0.70;;
6292;SDS011;3179;54.350;10.102;2023-11-19T03:12:49;0.57;;;0.57;;
6292;SDS011;3179;54.350;10.102;2023-11-19T03:15:15;0.60;;;0.60;;
6292;SDS011;3179;54.350;10.102;2023-11-19T03:17:42;0.60;;;0.60;;
6292;SDS011;3179;54.350;10.102;2023-11-19T03:20:11;0.50;;;0.50;;
6292;SDS011;3179;54.350;10.102;2023-11-19T03:22:40;0.60;;;0.60;;
6292;SDS011;3179;54.350;10.102;2023-11-19T03:25:07;0.60;;;0.60;;
6292;SDS011;3179;54.350;10.102;2023-11-19T03:27:34;0.60;;;0.60;;
6292;SDS011;3179;54.350;10.102;2023-11-19T03:30:01;0.70;;;0.70;;
6292;SDS011;3179;54.350;10.102;2023-11-19T03:32:29;0.50;;;0.43;;
6292;SDS011;3179;54.350;10.102;2023-11-19T03:34:56;1.07;;;0.70;;
6292;SDS011;3179;54.350;10.102;2023-11-19T03:37:25;0.60;;;0.60;;
6292;SDS011;3179;54.350;10.102;2023-11-19T03:39:53;0.80;;;0.60;;
6292;SDS011;3179;54.350;10.102;2023-11-19T03:42:20;0.50;;;0.50;;
6292;SDS011;3179;54.350;10.102;2023-11-19T03:44:47;1.20;;;0.53;;
6292;SDS011;3179;54.350;10.102;2023-11-19T03:47:15;0.60;;;0.50;;
6292;SDS011;3179;54.350;10.102;2023-11-19T03:49:42;0.40;;;0.40;;
6292;SDS011;3179;54.350;10.102;2023-11-19T03:52:09;0.50;;;0.50;;
6292;SDS011;3179;54.350;10.102;2023-11-19T03:54:37;0.40;;;0.40;;
6292;SDS011;3179;54.350;10.102;2023-11-19T03:57:04;0.97;;;0.50;;
6292;SDS011;3179;54.350;10.102;2023-11-19T03:59:31;0.70;;;0.47;;
6292;SDS011;3179;54.350;10.102;2023-11-19T04:01:58;0.40;;;0.40;;
6292;SDS011;3179;54.350;10.102;2023-11-19T04:04:25;0.70;;;0.47;;
6292;SDS011;3179;54.350;10.102;2023-11-19T04:06:52;0.50;;;0.50;;
6292;SDS011;3179;54.350;10.102;2023-11-19T04:09:19;0.53;;;0.53;;
6292;SDS011;3179;54.350;10.102;2023-11-19T04:11:47;0.60;;;0.60;;
6292;SDS011;3179;54.350;10.102;2023-11-19T04:14:14;0.40;;;0.40;;
6292;SDS011;3179;54.350;10.102;2023-11-19T04:16:43;0.50;;;0.47;;
6292;SDS011;3179;54.350;10.102;2023-11-19T04:19:10;0.50;;;0.50;;
6292;SDS011;3179;54.350;10.102;2023-11-19T04:21:37;0.50;;;0.50;;
6292;SDS011;3179;54.350;10.102;2023-11-19T04:24:07;2.00;;;0.60;;
6292;SDS011;3179;54.350;10.102;2023-11-19T04:26:39;0.60;;;0.40;;
6292;SDS011;3179;54.350;10.102;2023-11-19T04:29:08;0.50;;;0.50;;
6292;SDS011;3179;54.350;10.102;2023-11-19T04:31:36;0.40;;;0.40;;
6292;SDS011;3179;54.350;10.102;2023-11-19T04:34:03;0.50;;;0.50;;
6292;SDS011;3179;54.350;10.102;2023-11-19T04:36:30;0.43;;;0.40;;
6292;SDS011;3179;54.350;10.102;2023-11-19T04:38:56;0.60;;;0.60;;
6292;SDS011;3179;54.350;10.102;2023-11-19T04:41:24;0.50;;;0.40;;
6292;SDS011;3179;54.350;10.102;2023-11-19T04:43:52;0.50;;;0.40;;
6292;SDS011;3179;54.350;10.102;2023-11-19T04:46:20;0.40;;;0.40;;
6292;SDS011;3179;54.350;10.102;2023-11-19T04:48:48;0.70;;;0.50;;
6292;SDS011;3179;54.350;10.102;2023-11-19T04:51:15;0.40;;;0.30;;
6292;SDS011;3179;54.350;10.102;2023-11-19T04:53:42;0.57;;;0.57;;
6292;SDS011;3179;54.350;10.102;2023-11-19T04:56:09;0.50;;;0.40;;
6292;SDS011;3179;54.350;10.102;2023-11-19T04:58:36;0.80;;;0.50;;
6292;SDS011;3179;54.350;10.102;2023-11-19T05:01:04;0.50;;;0.50;;
6292;SDS011;3179;54.350;10.102;2023-11-19T05:03:32;0.50;;;0.47;;
6292;SDS011;3179;54.350;10.102;2023-11-19T05:05:59;0.47;;;0.47;;
6292;SDS011;3179;54.350;10.102;2023-11-19T05:08:26;0.50;;;0.50;;
6292;SDS011;3179;54.350;10.102;2023-11-19T05:10:52;0.43;;;0.43;;
6292;SDS011;3179;54.350;10.102;2023-11-19T05:13:19;0.77;;;0.70;;
6292;SDS011;3179;54.350;10.102;2023-11-19T05:15:47;0.60;;;0.60;;
6292;SDS011;3179;54.350;10.102;2023-11-19T05:18:13;0.40;;;0.40;;
6292;SDS011;3179;54.350;10.102;2023-11-19T05:20:42;0.40;;;0.40;;
6292;SDS011;3179;54.350;10.102;2023-11-19T05:23:08;0.60;;;0.60;;
6292;SDS011;3179;54.350;10.102;2023-11-19T05:25:36;0.50;;;0.47;;
6292;SDS011;3179;54.350;10.102;2023-11-19T05:28:03;0.40;;;0.40;;
6292;SDS011;3179;54.350;10.102;2023-11-19T05:30:29;0.50;;;0.50;;
6292;SDS011;3179;54.350;10.102;2023-11-19T05:32:56;0.50;;;0.50;;
6292;SDS011;3179;54.350;10.102;2023-11-19T05:35:23;0.47;;;0.47;;
6292;SDS011;3179;54.350;10.102;2023-11-19T05:37:51;0.53;;;0.50;;
6292;SDS011;3179;54.350;10.102;2023-11-19T05:40:18;0.77;;;0.63;;
6292;SDS011;3179;54.350;10.102;2023-11-19T05:42:45;0.70;;;0.70;;
6292;SDS011;3179;54.350;10.102;2023-11-19T05:45:12;0.60;;;0.60;;
6292;SDS011;3179;54.350;10.102;2023-11-19T05:47:39;0.70;;;0.70;;
6292;SDS011;3179;54.350;10.102;2023-11-19T05:50:07;0.70;;;0.70;;
6292;SDS011;3179;54.350;10.102;2023-11-19T05:52:35;0.77;;;0.77;;
6292;SDS011;3179;54.350;10.102;2023-11-19T05:55:03;1.40;;;1.30;;
6292;SDS011;3179;54.350;10.102;2023-11-19T05:57:34;2.00;;;1.20;;
6292;SDS011;3179;54.350;10.102;2023-11-19T06:00:01;0.97;;;0.97;;
6292;SDS011;3179;54.350;10.102;2023-11-19T06:02:28;1.43;;;1.33;;
6292;SDS011;3179;54.350;10.102;2023-11-19T06:04:55;1.33;;;1.23;;
6292;SDS011;3179;54.350;10.102;2023-11-19T06:07:22;1.53;;;1.40;;
6292;SDS011;3179;54.350;10.102;2023-11-19T06:09:49;1.57;;;1.40;;
6292;SDS011;3179;54.350;10.102;2023-11-19T06:12:17;4.20;;;1.93;;
6292;SDS011;3179;54.350;10.102;2023-11-19T06:14:43;2.87;;;1.70;;
6292;SDS011;3179;54.350;10.102;2023-11-19T06:17:10;1.57;;;1.40;;
6292;SDS011;3179;54.350;10.102;2023-11-19T06:19:37;1.77;;;1.67;;
6292;SDS011;3179;54.350;10.102;2023-11-19T06:22:04;2.17;;;1.80;;
6292;SDS011;3179;54.350;10.102;2023-11-19T06:24:31;2.03;;;1.53;;
6292;SDS011;3179;54.350;10.102;2023-11-19T06:26:58;3.33;;;2.07;;
6292;SDS011;3179;54.350;10.102;2023-11-19T06:29:26;3.77;;;1.83;;
6292;SDS011;3179;54.350;10.102;2023-11-19T06:31:53;2.60;;;1.90;;
6292;SDS011;3179;54.350;10.102;2023-11-19T06:34:20;2.63;;;2.37;;
6292;SDS011;3179;54.350;10.102;2023-11-19T06:36:46;6.43;;;2.23;;
6292;SDS011;3179;54.350;10.102;2023-11-19T06:39:13;2.73;;;2.13;;
6292;SDS011;3179;54.350;10.102;2023-11-19T06:41:44;2.80;;;2.00;;
6292;SDS011;3179;54.350;10.102;2023-11-19T06:44:11;4.57;;;2.77;;
6292;SDS011;3179;54.350;10.102;2023-11-19T06:46:39;2.93;;;2.20;;
6292;SDS011;3179;54.350;10.102;2023-11-19T06:49:06;4.67;;;3.27;;
6292;SDS011;3179;54.350;10.102;2023-11-19T06:51:33;2.30;;;2.10;;
6292;SDS011;3179;54.350;10.102;2023-11-19T06:54:00;2.77;;;2.50;;
6292;SDS011;3179;54.350;10.102;2023-11-19T06:56:27;3.03;;;2.37;;
6292;SDS011;3179;54.350;10.102;2023-11-19T06:58:53;3.67;;;2.30;;
6292;SDS011;3179;54.350;10.102;2023-11-19T07:01:19;4.03;;;2.77;;
6292;SDS011;3179;54.350;10.102;2023-11-19T07:03:47;5.13;;;3.30;;
6292;SDS011;3179;54.350;10.102;2023-11-19T07:06:16;3.83;;;2.70;;
6292;SDS011;3179;54.350;10.102;2023-11-19T07:08:43;6.07;;;3.20;;
6292;SDS011;3179;54.350;10.102;2023-11-19T07:11:10;8.80;;;3.33;;
6292;SDS011;3179;54.350;10.102;2023-11-19T07:13:39;6.17;;;3.70;;
6292;SDS011;3179;54.350;10.102;2023-11-19T07:16:08;4.07;;;3.67;;
6292;SDS011;3179;54.350;10.102;2023-11-19T07:18:36;7.20;;;3.53;;
6292;SDS011;3179;54.350;10.102;2023-11-19T07:21:06;5.53;;;3.57;;
6292;SDS011;3179;54.350;10.102;2023-11-19T07:23:35;4.57;;;3.60;;
6292;SDS011;3179;54.350;10.102;2023-11-19T07:26:04;5.60;;;4.40;;
6292;SDS011;3179;54.350;10.102;2023-11-19T07:28:31;5.37;;;4.10;;
6292;SDS011;3179;54.350;10.102;2023-11-19T07:30:58;8.23;;;4.10;;
6292;SDS011;3179;54.350;10.102;2023-11-19T07:33:25;6.33;;;4.40;;
6292;SDS011;3179;54.350;10.102;2023-11-19T07:35:52;6.70;;;4.43;;
6292;SDS011;3179;54.350;10.102;2023-11-19T07:38:20;7.57;;;4.83;;
6292;SDS011;3179;54.350;10.102;2023-11-19T07:40:47;5.50;;;4.00;;
6292;SDS011;3179;54.350;10.102;2023-11-19T07:43:14;6.40;;;4.40;;
6292;SDS011;3179;54.350;10.102;2023-11-19T07:45:41;5.20;;;4.33;;
6292;SDS011;3179;54.350;10.102;2023-11-19T07:48:08;7.10;;;4.33;;
6292;SDS011;3179;54.350;10.102;2023-11-19T07:50:36;8.37;;;4.77;;
6292;SDS011;3179;54.350;10.102;2023-11-19T07:53:05;7.50;;;3.50;;
6292;SDS011;3179;54.350;10.102;2023-11-19T07:55:33;8.00;;;4.30;;
6292;SDS011;3179;54.350;10.102;2023-11-19T07:58:00;8.17;;;4.47;;
6292;SDS011;3179;54.350;10.102;2023-11-19T08:00:27;9.00;;;4.60;;
6292;SDS011;3179;54.350;10.102;2023-11-19T08:02:54;9.30;;;4.83;;
6292;SDS011;3179;54.350;10.102;2023-11-19T08:05:20;5.60;;;4.17;;
6292;SDS011;3179;54.350;10.102;2023-11-19T08:07:49;7.57;;;4.30;;
6292;SDS011;3179;54.350;10.102;2023-11-19T08:10:17;11.73;;;4.80;;
6292;SDS011;3179;54.350;10.102;2023-11-19T08:12:45;12.90;;;4.33;;
6292;SDS011;3179;54.350;10.102;2023-11-19T08:15:12;10.30;;;3.40;;
6292;SDS011;3179;54.350;10.102;2023-11-19T08:17:38;9.27;;;4.03;;
6292;SDS011;3179;54.350;10.102;2023-11-19T08:20:06;13.40;;;3.83;;
6292;SDS011;3179;54.350;10.102;2023-11-19T08:22:35;7.70;;;3.13;;
6292;SDS011;3179;54.350;10.102;2023-11-19T08:25:02;11.13;;;3.73;;
6292;SDS011;3179;54.350;10.102;2023-11-19T08:27:29;10.03;;;3.20;;
6292;SDS011;3179;54.350;10.102;2023-11-19T08:29:57;9.67;;;3.20;;
6292;SDS011;3179;54.350;10.102;2023-11-19T08:32:24;15.43;;;3.33;;
6292;SDS011;3179;54.350;10.102;2023-11-19T08:34:51;17.73;;;4.17;;
6292;SDS011;3179;54.350;10.102;2023-11-19T08:37:18;12.20;;;3.80;;
6292;SDS011;3179;54.350;10.102;2023-11-19T08:39:47;7.77;;;3.60;;
6292;SDS011;3179;54.350;10.102;2023-11-19T08:42:13;8.93;;;3.20;;
6292;SDS011;3179;54.350;10.102;2023-11-19T08:44:40;16.20;;;4.30;;
6292;SDS011;3179;54.350;10.102;2023-11-19T08:47:10;11.10;;;2.93;;
6292;SDS011;3179;54.350;10.102;2023-11-19T08:49:37;15.90;;;3.67;;
6292;SDS011;3179;54.350;10.102;2023-11-19T08:52:04;17.77;;;3.80;;
6292;SDS011;3179;54.350;10.102;2023-11-19T08:54:32;17.50;;;4.30;;
6292;SDS011;3179;54.350;10.102;2023-11-19T08:56:59;15.03;;;3.73;;
6292;SDS011;3179;54.350;10.102;2023-11-19T08:59:25;21.20;;;4.10;;
6292;SDS011;3179;54.350;10.102;2023-11-19T09:01:52;18.70;;;4.57;;
6292;SDS011;3179;54.350;10.102;2023-11-19T09:04:20;15.50;;;4.60;;
6292;SDS011;3179;54.350;10.102;2023-11-19T09:06:48;17.70;;;4.13;;
6292;SDS011;3179;54.350;10.102;2023-11-19T09:09:15;17.30;;;4.30;;
6292;SDS011;3179;54.350;10.102;2023-11-19T09:11:41;22.33;;;4.60;;
6292;SDS011;3179;54.350;10.102;2023-11-19T09:14:08;15.23;;;5.20;;
6292;SDS011;3179;54.350;10.102;2023-11-19T09:16:35;23.67;;;5.37;;
6292;SDS011;3179;54.350;10.102;2023-11-19T09:19:02;20.43;;;4.53;;
6292;SDS011;3179;54.350;10.102;2023-11-19T09:21:30;18.50;;;5.43;;
6292;SDS011;3179;54.350;10.102;2023-11-19T09:23:57;20.70;;;5.00;;
6292;SDS011;3179;54.350;10.102;2023-11-19T09:26:24;28.97;;;6.27;;
6292;SDS011;3179;54.350;10.102;2023-11-19T09:28:51;24.73;;;5.33;;
6292;SDS011;3179;54.350;10.102;2023-11-19T09:31:17;26.00;;;5.93;;
6292;SDS011;3179;54.350;10.102;2023-11-19T09:33:44;24.47;;;5.27;;
6292;SDS011;3179;54.350;10.102;2023-11-19T09:36:11;26.43;;;6.27;;
6292;SDS011;3179;54.350;10.102;2023-11-19T09:38:41;20.27;;;5.53;;
6292;SDS011;3179;54.350;10.102;2023-11-19T09:41:07;28.33;;;7.13;;
6292;SDS011;3179;54.350;10.102;2023-11-19T09:43:37;22.53;;;5.73;;
6292;SDS011;3179;54.350;10.102;2023-11-19T09:46:06;32.93;;;6.27;;
6292;SDS011;3179;54.350;10.102;2023-11-19T09:48:37;31.70;;;6.20;;
6292;SDS011;3179;54.350;10.102;2023-11-19T09:51:05;26.87;;;6.20;;
6292;SDS011;3179;54.350;10.102;2023-11-19T09:53:31;34.33;;;6.00;;
6292;SDS011;3179;54.350;10.102;2023-11-19T09:56:00;29.80;;;6.70;;
6292;SDS011;3179;54.350;10.102;2023-11-19T09:58:28;26.30;;;6.07;;
6292;SDS011;3179;54.350;10.102;2023-11-19T10:00:56;23.07;;;6.57;;
6292;SDS011;3179;54.350;10.102;2023-11-19T10:03:24;22.20;;;6.40;;
6292;SDS011;3179;54.350;10.102;2023-11-19T10:05:52;28.90;;;7.23;;
6292;SDS011;3179;54.350;10.102;2023-11-19T10:08:23;24.70;;;6.63;;
6292;SDS011;3179;54.350;10.102;2023-11-19T10:10:50;22.37;;;5.20;;
6292;SDS011;3179;54.350;10.102;2023-11-19T10:13:19;22.27;;;5.50;;
6292;SDS011;3179;54.350;10.102;2023-11-19T10:15:45;30.43;;;6.93;;
6292;SDS011;3179;54.350;10.102;2023-11-19T10:18:15;19.07;;;4.60;;
6292;SDS011;3179;54.350;10.102;2023-11-19T10:20:41;16.57;;;4.80;;
6292;SDS011;3179;54.350;10.102;2023-11-19T10:23:09;23.90;;;5.77;;
6292;SDS011;3179;54.350;10.102;2023-11-19T10:25:36;27.40;;;6.87;;
6292;SDS011;3179;54.350;10.102;2023-11-19T10:28:03;21.07;;;5.30;;
6292;SDS011;3179;54.350;10.102;2023-11-19T10:30:31;20.03;;;5.10;;
6292;SDS011;3179;54.350;10.102;2023-11-19T10:33:03;21.87;;;5.00;;
6292;SDS011;3179;54.350;10.102;2023-11-19T10:35:31;17.80;;;4.73;;
6292;SDS011;3179;54.350;10.102;2023-11-19T10:37:58;28.67;;;6.23;;
6292;SDS011;3179;54.350;10.102;2023-11-19T10:40:37;27.63;;;5.70;;
6292;SDS011;3179;54.350;10.102;2023-11-19T10:43:05;32.10;;;6.30;;
6292;SDS011;3179;54.350;10.102;2023-11-19T10:45:34;24.10;;;5.23;;
6292;SDS011;3179;54.350;10.102;2023-11-19T10:48:02;26.53;;;4.60;;
6292;SDS011;3179;54.350;10.102;2023-11-19T10:50:31;18.43;;;5.13;;
6292;SDS011;3179;54.350;10.102;2023-11-19T10:52:59;23.63;;;4.97;;
6292;SDS011;3179;54.350;10.102;2023-11-19T10:55:26;27.27;;;5.10;;
6292;SDS011;3179;54.350;10.102;2023-11-19T10:57:55;19.40;;;5.03;;
6292;SDS011;3179;54.350;10.102;2023-11-19T11:00:25;18.63;;;5.10;;
6292;SDS011;3179;54.350;10.102;2023-11-19T11:02:59;18.30;;;4.97;;
6292;SDS011;3179;54.350;10.102;2023-11-19T11:05:28;18.97;;;3.90;;
6292;SDS011;3179;54.350;10.102;2023-11-19T11:07:58;28.80;;;5.63;;
6292;SDS011;3179;54.350;10.102;2023-11-19T11:10:27;21.23;;;5.60;;
6292;SDS011;3179;54.350;10.102;2023-11-19T11:12:58;25.20;;;5.90;;
6292;SDS011;3179;54.350;10.102;2023-11-19T11:15:26;20.00;;;4.90;;
6292;SDS011;3179;54.350;10.102;2023-11-19T11:17:55;31.17;;;5.80;;
6292;SDS011;3179;54.350;10.102;2023-11-19T11:20:27;20.70;;;5.87;;
6292;SDS011;3179;54.350;10.102;2023-11-19T11:22:58;29.83;;;7.00;;
6292;SDS011;3179;54.350;10.102;2023-11-19T11:25:51;26.23;;;6.03;;
6292;SDS011;3179;54.350;10.102;2023-11-19T11:28:28;28.40;;;6.03;;
6292;SDS011;3179;54.350;10.102;2023-11-19T11:31:15;21.43;;;5.50;;
6292;SDS011;3179;54.350;10.102;2023-11-19T11:34:01;44.70;;;7.53;;
6292;SDS011;3179;54.350;10.102;2023-11-19T11:36:45;25.57;;;5.37;;
6292;SDS011;3179;54.350;10.102;2023-11-19T11:39:20;37.90;;;6.90;;
6292;SDS011;3179;54.350;10.102;2023-11-19T11:41:58;27.60;;;6.60;;
6292;SDS011;3179;54.350;10.102;2023-11-19T11:44:58;28.67;;;6.03;;
6292;SDS011;3179;54.350;10.102;2023-11-19T11:47:27;33.53;;;6.30;;
6292;SDS011;3179;54.350;10.102;2023-11-19T11:50:53;21.03;;;6.27;;
6292;SDS011;3179;54.350;10.102;2023-11-19T11:53:21;21.33;;;4.90;;
6292;SDS011;3179;54.350;10.102;2023-11-19T11:55:55;23.63;;;5.80;;
6292;SDS011;3179;54.350;10.102;2023-11-19T11:58:29;26.53;;;6.47;;
6292;SDS011;3179;54.350;10.102;2023-11-19T12:00:57;24.93;;;5.90;;
6292;SDS011;3179;54.350;10.102;2023-11-19T12:03:27;25.40;;;5.77;;
6292;SDS011;3179;54.350;10.102;2023-11-19T12:05:56;25.80;;;5.90;;
6292;SDS011;3179;54.350;10.102;2023-11-19T12:08:27;32.43;;;6.70;;
6292;SDS011;3179;54.350;10.102;2023-11-19T12:10:56;20.57;;;6.37;;
6292;SDS011;3179;54.350;10.102;2023-11-19T12:13:24;31.23;;;6.53;;
6292;SDS011;3179;54.350;10.102;2023-11-19T12:16:08;35.30;;;6.60;;
6292;SDS011;3179;54.350;10.102;2023-11-19T12:18:35;25.27;;;5.43;;
6292;SDS011;3179;54.350;10.102;2023-11-19T12:21:06;28.00;;;6.20;;
6292;SDS011;3179;54.350;10.102;2023-11-19T12:23:34;26.30;;;5.60;;
6292;SDS011;3179;54.350;10.102;2023-11-19T12:26:01;26.77;;;6.33;;
6292;SDS011;3179;54.350;10.102;2023-11-19T12:28:28;20.47;;;5.97;;
6292;SDS011;3179;54.350;10.102;2023-11-19T12:31:06;20.20;;;5.80;;
6292;SDS011;3179;54.350;10.102;2023-11-19T12:33:35;29.90;;;5.53;;
6292;SDS011;3179;54.350;10.102;2023-11-19T12:36:03;31.33;;;6.07;;
6292;SDS011;3179;54.350;10.102;2023-11-19T12:38:32;19.53;;;5.67;;
6292;SDS011;3179;54.350;10.102;2023-11-19T12:41:02;33.80;;;6.00;;
6292;SDS011;3179;54.350;10.102;2023-11-19T12:43:29;24.90;;;5.10;;
6292;SDS011;3179;54.350;10.102;2023-11-19T12:45:59;24.97;;;5.50;;
6292;SDS011;3179;54.350;10.102;2023-11-19T12:48:26;24.40;;;5.73;;
6292;SDS011;3179;54.350;10.102;2023-11-19T12:50:53;20.40;;;4.97;;
6292;SDS011;3179;54.350;10.102;2023-11-19T12:53:20;14.53;;;4.70;;
6292;SDS011;3179;54.350;10.102;2023-11-19T12:55:49;18.07;;;5.27;;
6292;SDS011;3179;54.350;10.102;2023-11-19T12:58:29;18.37;;;5.30;;
6292;SDS011;3179;54.350;10.102;2023-11-19T13:00:59;15.93;;;5.30;;
6292;SDS011;3179;54.350;10.102;2023-11-19T13:03:30;21.60;;;4.33;;
6292;SDS011;3179;54.350;10.102;2023-11-19T13:06:01;22.07;;;5.87;;
6292;SDS011;3179;54.350;10.102;2023-11-19T13:08:29;16.03;;;4.50;;
6292;SDS011;3179;54.350;10.102;2023-11-19T13:11:04;11.60;;;3.70;;
6292;SDS011;3179;54.350;10.102;2023-11-19T13:13:32;15.97;;;4.10;;
6292;SDS011;3179;54.350;10.102;2023-11-19T13:16:03;16.17;;;3.73;;
6292;SDS011;3179;54.350;10.102;2023-11-19T13:18:31;18.77;;;4.93;;
6292;SDS011;3179;54.350;10.102;2023-11-19T13:20:58;13.27;;;4.17;;
6292;SDS011;3179;54.350;10.102;2023-11-19T13:23:25;17.47;;;4.03;;
6292;SDS011;3179;54.350;10.102;2023-11-19T13:25:51;18.30;;;4.30;;
6292;SDS011;3179;54.350;10.102;2023-11-19T13:28:19;22.00;;;5.03;;
6292;SDS011;3179;54.350;10.102;2023-11-19T13:30:47;16.03;;;5.07;;
6292;SDS011;3179;54.350;10.102;2023-11-19T13:33:14;13.57;;;4.53;;
6292;SDS011;3179;54.350;10.102;2023-11-19T13:35:41;19.77;;;5.33;;
6292;SDS011;3179;54.350;10.102;2023-11-19T13:38:08;16.97;;;4.33;;
6292;SDS011;3179;54.350;10.102;2023-11-19T13:40:35;12.47;;;3.47;;
6292;SDS011;3179;54.350;10.102;2023-11-19T13:43:01;14.20;;;4.43;;
6292;SDS011;3179;54.350;10.102;2023-11-19T13:45:29;23.40;;;5.37;;
6292;SDS011;3179;54.350;10.102;2023-11-19T13:47:56;18.87;;;4.13;;
6292;SDS011;3179;54.350;10.102;2023-11-19T13:50:23;18.43;;;4.63;;
6292;SDS011;3179;54.350;10.102;2023-11-19T13:52:50;22.37;;;5.20;;
6292;SDS011;3179;54.350;10.102;2023-11-19T13:55:18;22.33;;;4.93;;
6292;SDS011;3179;54.350;10.102;2023-11-19T13:57:44;21.80;;;5.10;;
6292;SDS011;3179;54.350;10.102;2023-11-19T14:00:12;15.50;;;4.43;;
6292;SDS011;3179;54.350;10.102;2023-11-19T14:02:42;14.27;;;3.57;;
6292;SDS011;3179;54.350;10.102;2023-11-19T14:05:09;15.07;;;4.20;;
6292;SDS011;3179;54.350;10.102;2023-11-19T14:07:37;17.73;;;5.17;;
6292;SDS011;3179;54.350;10.102;2023-11-19T14:10:04;17.40;;;4.43;;
6292;SDS011;3179;54.350;10.102;2023-11-19T14:12:31;23.43;;;5.17;;
6292;SDS011;3179;54.350;10.102;2023-11-19T14:14:59;13.53;;;4.23;;
6292;SDS011;3179;54.350;10.102;2023-11-19T14:17:26;20.63;;;5.37;;
6292;SDS011;3179;54.350;10.102;2023-11-19T14:19:54;21.57;;;5.93;;
6292;SDS011;3179;54.350;10.102;2023-11-19T14:22:20;17.27;;;5.10;;
6292;SDS011;3179;54.350;10.102;2023-11-19T14:24:47;17.70;;;4.80;;
6292;SDS011;3179;54.350;10.102;2023-11-19T14:27:14;23.50;;;5.07;;
6292;SDS011;3179;54.350;10.102;2023-11-19T14:29:42;16.00;;;4.90;;
6292;SDS011;3179;54.350;10.102;2023-11-19T14:32:09;19.47;;;4.67;;
6292;SDS011;3179;54.350;10.102;2023-11-19T14:34:36;28.93;;;5.07;;
6292;SDS011;3179;54.350;10.102;2023-11-19T14:37:04;20.93;;;5.10;;
6292;SDS011;3179;54.350;10.102;2023-11-19T14:39:31;19.97;;;5.63;;
6292;SDS011;3179;54.350;10.102;2023-11-19T14:41:58;24.00;;;5.20;;
6292;SDS011;3179;54.350;10.102;2023-11-19T14:44:29;26.23;;;5.20;;
6292;SDS011;3179;54.350;10.102;2023-11-19T14:46:56;24.50;;;5.40;;
6292;SDS011;3179;54.350;10.102;2023-11-19T14:49:23;21.47;;;4.57;;
6292;SDS011;3179;54.350;10.102;2023-11-19T14:51:51;19.80;;;5.20;;
6292;SDS011;3179;54.350;10.102;2023-11-19T14:54:19;27.80;;;6.23;;
6292;SDS011;3179;54.350;10.102;2023-11-19T14:56:46;17.23;;;5.10;;
6292;SDS011;3179;54.350;10.102;2023-11-19T14:59:12;17.10;;;4.50;;
6292;SDS011;3179;54.350;10.102;2023-11-19T15:01:39;13.00;;;4.07;;
6292;SDS011;3179;54.350;10.102;2023-11-19T15:04:12;16.37;;;4.17;;